sensor_id;sensor_type;location;lat;lon;timestamp;pressure;altitude;pressure_sealevel;temperature;humidity
59103;BME280;43999;51.660;5.616;2022-08-25T00:00:14;101447.63;;;23.41;82.74
59103;BME280;43999;51.660;5.616;2022-08-25T00:02:42;101443.56;;;23.37;83.37
59103;BME280;43999;51.660;5.616;2022-08-25T00:05:26;101450.03;;;23.34;83.93
59103;BME280;43999;51.660;5.616;2022-08-25T00:08:01;101445.00;;;23.31;83.51
59103;BME280;43999;51.660;5.616;2022-08-25T00:10:38;101448.84;;;23.29;83.71
59103;BME280;43999;51.660;5.616;2022-08-25T00:13:07;101450.78;;;23.26;83.66
59103;BME280;43999;51.660;5.616;2022-08-25T00:15:35;101439.72;;;23.21;83.53
59103;BME280;43999;51.660;5.616;2022-08-25T00:18:03;101453.25;;;23.20;83.07
59103;BME280;43999;51.660;5.616;2022-08-25T00:20:47;101444.69;;;23.16;82.88
59103;BME280;43999;51.660;5.616;2022-08-25T00:23:15;101440.31;;;23.15;83.40
59103;BME280;43999;51.660;5.616;2022-08-25T00:25:42;101441.59;;;23.11;82.99
59103;BME280;43999;51.660;5.616;2022-08-25T00:28:10;101444.44;;;23.09;83.26
59103;BME280;43999;51.660;5.616;2022-08-25T00:30:38;101451.75;;;23.07;83.45
59103;BME280;43999;51.660;5.616;2022-08-25T00:33:05;101439.66;;;23.03;82.71
59103;BME280;43999;51.660;5.616;2022-08-25T00:35:33;101447.13;;;23.00;82.50
59103;BME280;43999;51.660;5.616;2022-08-25T00:38:01;101447.28;;;22.98;82.99
59103;BME280;43999;51.660;5.616;2022-08-25T00:40:29;101448.41;;;22.96;82.26
59103;BME280;43999;51.660;5.616;2022-08-25T00:42:56;101447.88;;;22.92;82.37
59103;BME280;43999;51.660;5.616;2022-08-25T00:45:23;101447.34;;;22.88;81.50
59103;BME280;43999;51.660;5.616;2022-08-25T00:47:51;101454.81;;;22.85;81.22
59103;BME280;43999;51.660;5.616;2022-08-25T00:50:19;101449.75;;;22.82;81.32
59103;BME280;43999;51.660;5.616;2022-08-25T00:52:55;101455.41;;;22.79;80.59
59103;BME280;43999;51.660;5.616;2022-08-25T00:55:37;101451.34;;;22.74;80.50
59103;BME280;43999;51.660;5.616;2022-08-25T00:58:17;101446.31;;;22.71;79.65
59103;BME280;43999;51.660;5.616;2022-08-25T01:00:53;101454.63;;;22.68;79.90
59103;BME280;43999;51.660;5.616;2022-08-25T01:03:27;101448.72;;;22.65;80.05
59103;BME280;43999;51.660;5.616;2022-08-25T01:06:02;101451.66;;;22.62;79.28
59103;BME280;43999;51.660;5.616;2022-08-25T01:08:32;101447.63;;;22.58;79.15
59103;BME280;43999;51.660;5.616;2022-08-25T01:11:05;101447.78;;;22.56;78.61
59103;BME280;43999;51.660;5.616;2022-08-25T01:13:43;101439.06;;;22.54;77.97
59103;BME280;43999;51.660;5.616;2022-08-25T01:16:16;101439.34;;;22.51;78.63
59103;BME280;43999;51.660;5.616;2022-08-25T01:18:51;101444.81;;;22.49;78.36
59103;BME280;43999;51.660;5.616;2022-08-25T01:21:24;101445.13;;;22.46;77.77
59103;BME280;43999;51.660;5.616;2022-08-25T01:23:56;101441.91;;;22.43;77.72
59103;BME280;43999;51.660;5.616;2022-08-25T01:26:30;101446.56;;;22.41;76.96
59103;BME280;43999;51.660;5.616;2022-08-25T01:29:04;101455.69;;;22.38;76.73
59103;BME280;43999;51.660;5.616;2022-08-25T01:31:59;101457.69;;;22.36;76.95
59103;BME280;43999;51.660;5.616;2022-08-25T01:34:32;101458.13;;;22.31;77.13
59103;BME280;43999;51.660;5.616;2022-08-25T01:37:02;101455.56;;;22.30;76.63
59103;BME280;43999;51.660;5.616;2022-08-25T01:39:32;101454.00;;;22.27;76.25
59103;BME280;43999;51.660;5.616;2022-08-25T01:44:34;101451.63;;;22.24;74.87
59103;BME280;43999;51.660;5.616;2022-08-25T01:47:06;101450.78;;;22.24;74.63
59103;BME280;43999;51.660;5.616;2022-08-25T01:49:34;101450.94;;;22.22;74.58
59103;BME280;43999;51.660;5.616;2022-08-25T01:52:29;101455.59;;;22.20;74.21
59103;BME280;43999;51.660;5.616;2022-08-25T01:55:00;101451.38;;;22.17;74.46
59103;BME280;43999;51.660;5.616;2022-08-25T01:57:29;101452.50;;;22.15;74.28
59103;BME280;43999;51.660;5.616;2022-08-25T01:59:58;101449.13;;;22.13;74.08
59103;BME280;43999;51.660;5.616;2022-08-25T02:02:37;101450.25;;;22.10;73.45
59103;BME280;43999;51.660;5.616;2022-08-25T02:05:11;101456.75;;;22.08;73.42
59103;BME280;43999;51.660;5.616;2022-08-25T02:07:41;101452.50;;;22.05;73.37
59103;BME280;43999;51.660;5.616;2022-08-25T02:10:11;101448.28;;;22.02;73.24
59103;BME280;43999;51.660;5.616;2022-08-25T02:12:39;101448.59;;;21.99;72.85
59103;BME280;43999;51.660;5.616;2022-08-25T02:15:07;101442.56;;;21.97;72.31
59103;BME280;43999;51.660;5.616;2022-08-25T02:17:35;101450.72;;;21.96;72.22
59103;BME280;43999;51.660;5.616;2022-08-25T02:20:05;101443.69;;;21.95;71.94
59103;BME280;43999;51.660;5.616;2022-08-25T02:22:35;101445.50;;;21.94;71.38
59103;BME280;43999;51.660;5.616;2022-08-25T02:25:04;101438.63;;;21.92;71.69
59103;BME280;43999;51.660;5.616;2022-08-25T02:27:37;101444.97;;;21.91;71.28
59103;BME280;43999;51.660;5.616;2022-08-25T02:30:05;101447.91;;;21.88;71.98
59103;BME280;43999;51.660;5.616;2022-08-25T02:32:33;101438.34;;;21.85;71.29
59103;BME280;43999;51.660;5.616;2022-08-25T02:35:00;101441.16;;;21.83;70.96
59103;BME280;43999;51.660;5.616;2022-08-25T02:37:28;101438.66;;;21.82;70.83
59103;BME280;43999;51.660;5.616;2022-08-25T02:39:55;101436.25;;;21.79;71.17
59103;BME280;43999;51.660;5.616;2022-08-25T02:42:22;101428.25;;;21.79;70.18
59103;BME280;43999;51.660;5.616;2022-08-25T02:44:50;101431.06;;;21.77;70.27
59103;BME280;43999;51.660;5.616;2022-08-25T02:47:19;101429.66;;;21.73;70.06
59103;BME280;43999;51.660;5.616;2022-08-25T02:49:53;101426.28;;;21.71;70.48
59103;BME280;43999;51.660;5.616;2022-08-25T02:52:21;101433.75;;;21.67;70.30
59103;BME280;43999;51.660;5.616;2022-08-25T02:54:48;101425.16;;;21.64;70.59
59103;BME280;43999;51.660;5.616;2022-08-25T02:57:16;101422.91;;;21.59;70.89
59103;BME280;43999;51.660;5.616;2022-08-25T02:59:44;101430.38;;;21.56;70.90
59103;BME280;43999;51.660;5.616;2022-08-25T03:02:14;101422.78;;;21.51;70.71
59103;BME280;43999;51.660;5.616;2022-08-25T03:04:43;101425.84;;;21.46;71.14
59103;BME280;43999;51.660;5.616;2022-08-25T03:07:11;101421.75;;;21.42;70.66
59103;BME280;43999;51.660;5.616;2022-08-25T03:09:38;101414.03;;;21.39;70.87
59103;BME280;43999;51.660;5.616;2022-08-25T03:12:06;101414.31;;;21.36;71.05
59103;BME280;43999;51.660;5.616;2022-08-25T03:14:34;101411.94;;;21.33;71.19
59103;BME280;43999;51.660;5.616;2022-08-25T03:17:02;101411.09;;;21.33;70.92
59103;BME280;43999;51.660;5.616;2022-08-25T03:19:34;101407.88;;;21.29;70.37
59103;BME280;43999;51.660;5.616;2022-08-25T03:22:02;101408.28;;;21.24;70.57
59103;BME280;43999;51.660;5.616;2022-08-25T03:24:29;101407.72;;;21.21;70.37
59103;BME280;43999;51.660;5.616;2022-08-25T03:26:57;101409.69;;;21.19;70.49
59103;BME280;43999;51.660;5.616;2022-08-25T03:29:30;101402.94;;;21.14;70.86
59103;BME280;43999;51.660;5.616;2022-08-25T03:31:59;101400.53;;;21.11;70.38
59103;BME280;43999;51.660;5.616;2022-08-25T03:34:28;101398.88;;;21.10;70.46
59103;BME280;43999;51.660;5.616;2022-08-25T03:36:57;101399.16;;;21.07;69.99
59103;BME280;43999;51.660;5.616;2022-08-25T03:39:26;101393.97;;;21.06;69.95
59103;BME280;43999;51.660;5.616;2022-08-25T03:41:53;101395.06;;;21.03;69.72
59103;BME280;43999;51.660;5.616;2022-08-25T03:44:21;101390.88;;;21.01;69.90
59103;BME280;43999;51.660;5.616;2022-08-25T03:46:50;101385.69;;;20.99;69.36
59103;BME280;43999;51.660;5.616;2022-08-25T03:49:22;101385.25;;;20.94;69.64
59103;BME280;43999;51.660;5.616;2022-08-25T03:51:52;101387.22;;;20.92;69.32
59103;BME280;43999;51.660;5.616;2022-08-25T03:54:24;101375.84;;;20.90;68.83
59103;BME280;43999;51.660;5.616;2022-08-25T03:56:52;101375.00;;;20.89;68.42
59103;BME280;43999;51.660;5.616;2022-08-25T03:59:20;101379.63;;;20.87;68.93
59103;BME280;43999;51.660;5.616;2022-08-25T04:01:49;101378.78;;;20.87;68.62
59103;BME280;43999;51.660;5.616;2022-08-25T04:04:21;101382.44;;;20.86;68.01
59103;BME280;43999;51.660;5.616;2022-08-25T04:06:48;101375.28;;;20.86;67.61
59103;BME280;43999;51.660;5.616;2022-08-25T04:09:16;101369.94;;;20.86;67.72
59103;BME280;43999;51.660;5.616;2022-08-25T04:11:43;101368.13;;;20.87;67.75
59103;BME280;43999;51.660;5.616;2022-08-25T04:14:10;101369.13;;;20.86;67.72
59103;BME280;43999;51.660;5.616;2022-08-25T04:16:43;101366.59;;;20.84;66.91
59103;BME280;43999;51.660;5.616;2022-08-25T04:19:12;101362.94;;;20.85;66.74
59103;BME280;43999;51.660;5.616;2022-08-25T04:21:40;101364.75;;;20.85;66.60
59103;BME280;43999;51.660;5.616;2022-08-25T04:24:10;101357.63;;;20.85;66.28
59103;BME280;43999;51.660;5.616;2022-08-25T04:26:46;101366.44;;;20.86;66.12
59103;BME280;43999;51.660;5.616;2022-08-25T04:29:17;101359.44;;;20.85;65.80
59103;BME280;43999;51.660;5.616;2022-08-25T04:31:51;101362.81;;;20.87;65.88
59103;BME280;43999;51.660;5.616;2022-08-25T04:34:23;101361.94;;;20.86;65.68
59103;BME280;43999;51.660;5.616;2022-08-25T04:37:02;101364.63;;;20.86;65.22
59103;BME280;43999;51.660;5.616;2022-08-25T04:39:34;101362.69;;;20.88;65.08
59103;BME280;43999;51.660;5.616;2022-08-25T04:42:02;101360.97;;;20.87;65.21
59103;BME280;43999;51.660;5.616;2022-08-25T04:44:30;101360.84;;;20.89;65.08
59103;BME280;43999;51.660;5.616;2022-08-25T04:47:00;101358.19;;;20.89;65.06
59103;BME280;43999;51.660;5.616;2022-08-25T04:49:28;101360.00;;;20.88;65.19
59103;BME280;43999;51.660;5.616;2022-08-25T04:51:56;101361.94;;;20.86;65.32
59103;BME280;43999;51.660;5.616;2022-08-25T04:54:23;101365.75;;;20.84;65.12
59103;BME280;43999;51.660;5.616;2022-08-25T04:56:51;101354.38;;;20.82;64.99
59103;BME280;43999;51.660;5.616;2022-08-25T04:59:25;101356.19;;;20.81;64.89
59103;BME280;43999;51.660;5.616;2022-08-25T05:01:58;101365.03;;;20.82;64.84
59103;BME280;43999;51.660;5.616;2022-08-25T05:04:30;101359.69;;;20.82;64.63
59103;BME280;43999;51.660;5.616;2022-08-25T05:07:00;101358.03;;;20.81;64.64
59103;BME280;43999;51.660;5.616;2022-08-25T05:09:28;101365.16;;;20.80;65.05
59103;BME280;43999;51.660;5.616;2022-08-25T05:12:00;101359.84;;;20.80;64.51
59103;BME280;43999;51.660;5.616;2022-08-25T05:14:30;101360.69;;;20.81;64.85
59103;BME280;43999;51.660;5.616;2022-08-25T05:16:58;101360.69;;;20.81;64.55
59103;BME280;43999;51.660;5.616;2022-08-25T05:19:25;101363.22;;;20.82;64.17
59103;BME280;43999;51.660;5.616;2022-08-25T05:21:53;101367.56;;;20.83;64.14
59103;BME280;43999;51.660;5.616;2022-08-25T05:24:24;101368.28;;;20.85;64.01
59103;BME280;43999;51.660;5.616;2022-08-25T05:26:52;101376.97;;;20.87;63.84
59103;BME280;43999;51.660;5.616;2022-08-25T05:29:20;101389.03;;;20.91;63.92
59103;BME280;43999;51.660;5.616;2022-08-25T05:31:47;101387.91;;;20.94;63.49
59103;BME280;43999;51.660;5.616;2022-08-25T05:34:17;101401.81;;;20.98;63.49
59103;BME280;43999;51.660;5.616;2022-08-25T05:36:46;101391.84;;;21.00;63.20
59103;BME280;43999;51.660;5.616;2022-08-25T05:39:15;101392.28;;;21.05;62.98
59103;BME280;43999;51.660;5.616;2022-08-25T05:41:42;101396.50;;;21.07;62.98
59103;BME280;43999;51.660;5.616;2022-08-25T05:44:10;101393.41;;;21.12;62.98
59103;BME280;43999;51.660;5.616;2022-08-25T05:46:38;101403.66;;;21.17;63.33
59103;BME280;43999;51.660;5.616;2022-08-25T05:49:06;101393.56;;;21.20;63.03
59103;BME280;43999;51.660;5.616;2022-08-25T05:51:33;101392.16;;;21.26;63.41
59103;BME280;43999;51.660;5.616;2022-08-25T05:54:00;101399.59;;;21.32;62.99
59103;BME280;43999;51.660;5.616;2022-08-25T05:56:28;101399.19;;;21.37;63.33
59103;BME280;43999;51.660;5.616;2022-08-25T05:58:55;101390.50;;;21.44;62.62
59103;BME280;43999;51.660;5.616;2022-08-25T06:01:27;101396.81;;;21.53;62.20
59103;BME280;43999;51.660;5.616;2022-08-25T06:04:17;101403.13;;;21.62;61.62
59103;BME280;43999;51.660;5.616;2022-08-25T06:06:46;101400.88;;;21.67;61.57
59103;BME280;43999;51.660;5.616;2022-08-25T06:09:14;101400.88;;;21.77;61.23
59103;BME280;43999;51.660;5.616;2022-08-25T06:11:42;101399.19;;;21.85;60.88
59103;BME280;43999;51.660;5.616;2022-08-25T06:14:09;101402.41;;;21.89;61.07
59103;BME280;43999;51.660;5.616;2022-08-25T06:16:38;101404.22;;;21.98;61.12
59103;BME280;43999;51.660;5.616;2022-08-25T06:19:08;101400.56;;;22.09;60.62
59103;BME280;43999;51.660;5.616;2022-08-25T06:21:37;101406.13;;;22.16;60.28
59103;BME280;43999;51.660;5.616;2022-08-25T06:24:06;101397.56;;;22.22;60.23
59103;BME280;43999;51.660;5.616;2022-08-25T06:26:41;101404.16;;;22.28;60.06
59103;BME280;43999;51.660;5.616;2022-08-25T06:29:10;101398.25;;;22.34;60.77
59103;BME280;43999;51.660;5.616;2022-08-25T06:31:40;101399.88;;;22.45;59.93
59103;BME280;43999;51.660;5.616;2022-08-25T06:34:09;101406.16;;;22.53;59.29
59103;BME280;43999;51.660;5.616;2022-08-25T06:36:37;101393.78;;;22.62;59.21
59103;BME280;43999;51.660;5.616;2022-08-25T06:39:07;101407.06;;;22.72;59.19
59103;BME280;43999;51.660;5.616;2022-08-25T06:41:37;101400.97;;;22.80;59.44
59103;BME280;43999;51.660;5.616;2022-08-25T06:44:05;101407.41;;;22.87;58.71
59103;BME280;43999;51.660;5.616;2022-08-25T06:46:32;101398.50;;;22.96;58.09
59103;BME280;43999;51.660;5.616;2022-08-25T06:49:04;101404.59;;;23.06;58.51
59103;BME280;43999;51.660;5.616;2022-08-25T06:51:33;101407.56;;;23.13;58.53
59103;BME280;43999;51.660;5.616;2022-08-25T06:54:06;101396.81;;;23.23;57.69
59103;BME280;43999;51.660;5.616;2022-08-25T06:56:34;101392.53;;;23.30;57.14
59103;BME280;43999;51.660;5.616;2022-08-25T06:59:04;101396.25;;;23.37;57.53
59103;BME280;43999;51.660;5.616;2022-08-25T07:01:33;101399.38;;;23.51;57.02
59103;BME280;43999;51.660;5.616;2022-08-25T07:04:03;101393.13;;;23.60;57.17
59103;BME280;43999;51.660;5.616;2022-08-25T07:06:39;101397.84;;;23.66;57.10
59103;BME280;43999;51.660;5.616;2022-08-25T07:09:09;101386.22;;;23.75;56.45
59103;BME280;43999;51.660;5.616;2022-08-25T07:11:41;101383.91;;;23.80;56.75
59103;BME280;43999;51.660;5.616;2022-08-25T07:14:12;101394.16;;;23.85;56.28
59103;BME280;43999;51.660;5.616;2022-08-25T07:16:42;101386.50;;;23.90;56.74
59103;BME280;43999;51.660;5.616;2022-08-25T07:19:15;101390.91;;;23.99;56.02
59103;BME280;43999;51.660;5.616;2022-08-25T07:21:50;101387.28;;;24.09;56.24
59103;BME280;43999;51.660;5.616;2022-08-25T07:24:20;101397.03;;;24.18;55.97
59103;BME280;43999;51.660;5.616;2022-08-25T07:26:49;101387.53;;;24.24;56.16
59103;BME280;43999;51.660;5.616;2022-08-25T07:29:22;101381.41;;;24.31;55.49
59103;BME280;43999;51.660;5.616;2022-08-25T07:32:13;101389.13;;;24.43;55.57
59103;BME280;43999;51.660;5.616;2022-08-25T07:34:40;101389.03;;;24.52;55.43
59103;BME280;43999;51.660;5.616;2022-08-25T07:37:27;101383.72;;;24.61;54.94
59103;BME280;43999;51.660;5.616;2022-08-25T07:42:57;101404.53;;;24.75;54.04
59103;BME280;43999;51.660;5.616;2022-08-25T07:45:30;101390.16;;;24.84;53.92
59103;BME280;43999;51.660;5.616;2022-08-25T07:48:08;101380.31;;;24.93;53.31
59103;BME280;43999;51.660;5.616;2022-08-25T07:50:43;101386.00;;;24.98;53.35
59103;BME280;43999;51.660;5.616;2022-08-25T07:53:13;101377.47;;;25.03;53.11
59103;BME280;43999;51.660;5.616;2022-08-25T07:55:42;101387.53;;;25.09;53.09
59103;BME280;43999;51.660;5.616;2022-08-25T07:58:14;101385.56;;;25.19;52.70
59103;BME280;43999;51.660;5.616;2022-08-25T08:00:41;101382.03;;;25.27;52.46
59103;BME280;43999;51.660;5.616;2022-08-25T08:03:09;101381.75;;;25.38;52.37
59103;BME280;43999;51.660;5.616;2022-08-25T08:05:56;101388.13;;;25.54;51.76
59103;BME280;43999;51.660;5.616;2022-08-25T08:08:24;101378.41;;;25.61;51.81
59103;BME280;43999;51.660;5.616;2022-08-25T08:10:51;101380.41;;;25.67;51.43
59103;BME280;43999;51.660;5.616;2022-08-25T08:13:32;101374.03;;;25.76;50.53
59103;BME280;43999;51.660;5.616;2022-08-25T08:16:11;101375.00;;;25.84;50.15
59103;BME280;43999;51.660;5.616;2022-08-25T08:18:42;101371.81;;;25.88;50.09
59103;BME280;43999;51.660;5.616;2022-08-25T08:23:51;101367.94;;;25.99;50.29
59103;BME280;43999;51.660;5.616;2022-08-25T08:26:26;101375.50;;;26.04;51.55
59103;BME280;43999;51.660;5.616;2022-08-25T08:29:14;101373.16;;;26.09;51.71
59103;BME280;43999;51.660;5.616;2022-08-25T08:31:42;101371.25;;;26.18;50.98
59103;BME280;43999;51.660;5.616;2022-08-25T08:34:15;101367.88;;;26.32;50.22
59103;BME280;43999;51.660;5.616;2022-08-25T08:36:42;101369.66;;;26.48;50.37
59103;BME280;43999;51.660;5.616;2022-08-25T08:39:11;101364.72;;;26.68;50.31
59103;BME280;43999;51.660;5.616;2022-08-25T08:48:13;101356.50;;;27.92;46.45
59103;BME280;43999;51.660;5.616;2022-08-25T08:51:19;101355.78;;;28.43;45.54
59103;BME280;43999;51.660;5.616;2022-08-25T08:54:24;101357.44;;;28.95;44.36
59103;BME280;43999;51.660;5.616;2022-08-25T08:57:24;101363.94;;;29.44;42.96
59103;BME280;43999;51.660;5.616;2022-08-25T09:00:04;101362.63;;;29.90;41.55
59103;BME280;43999;51.660;5.616;2022-08-25T09:03:04;101347.88;;;30.28;42.13
59103;BME280;43999;51.660;5.616;2022-08-25T09:05:49;101357.81;;;30.69;40.88
59103;BME280;43999;51.660;5.616;2022-08-25T09:08:20;101349.78;;;31.09;40.11
59103;BME280;43999;51.660;5.616;2022-08-25T09:11:09;101348.38;;;31.46;38.38
59103;BME280;43999;51.660;5.616;2022-08-25T09:17:05;101348.91;;;32.15;36.70
59103;BME280;43999;51.660;5.616;2022-08-25T09:23:02;101355.75;;;32.77;35.29
59103;BME280;43999;51.660;5.616;2022-08-25T09:25:51;101355.50;;;33.10;35.38
59103;BME280;43999;51.660;5.616;2022-08-25T09:28:46;101355.41;;;33.49;33.83
59103;BME280;43999;51.660;5.616;2022-08-25T09:31:44;101358.75;;;33.69;33.98
59103;BME280;43999;51.660;5.616;2022-08-25T09:34:19;101355.81;;;33.96;34.21
59103;BME280;43999;51.660;5.616;2022-08-25T09:36:49;101354.63;;;34.29;33.07
59103;BME280;43999;51.660;5.616;2022-08-25T09:39:19;101357.66;;;34.51;32.13
59103;BME280;43999;51.660;5.616;2022-08-25T09:41:57;101350.91;;;34.72;31.80
59103;BME280;43999;51.660;5.616;2022-08-25T09:44:40;101350.88;;;34.91;31.92
59103;BME280;43999;51.660;5.616;2022-08-25T09:47:25;101345.81;;;35.18;31.35
59103;BME280;43999;51.660;5.616;2022-08-25T09:50:01;101341.94;;;35.38;31.14
59103;BME280;43999;51.660;5.616;2022-08-25T09:52:36;101354.38;;;35.57;30.93
59103;BME280;43999;51.660;5.616;2022-08-25T10:06:14;101332.75;;;36.15;29.32
59103;BME280;43999;51.660;5.616;2022-08-25T10:11:13;101333.63;;;36.44;28.15
59103;BME280;43999;51.660;5.616;2022-08-25T10:16:47;101317.69;;;36.70;28.56
59103;BME280;43999;51.660;5.616;2022-08-25T10:19:29;101318.78;;;36.69;28.44
59103;BME280;43999;51.660;5.616;2022-08-25T10:24:34;101310.41;;;36.87;28.21
59103;BME280;43999;51.660;5.616;2022-08-25T10:27:25;101304.91;;;37.04;27.48
59103;BME280;43999;51.660;5.616;2022-08-25T10:33:13;101294.69;;;37.50;26.19
59103;BME280;43999;51.660;5.616;2022-08-25T10:36:06;101290.88;;;37.52;25.44
59103;BME280;43999;51.660;5.616;2022-08-25T10:38:59;101293.94;;;37.55;24.91
59103;BME280;43999;51.660;5.616;2022-08-25T10:42:00;101281.47;;;37.64;24.89
59103;BME280;43999;51.660;5.616;2022-08-25T10:44:55;101276.19;;;37.75;23.38
59103;BME280;43999;51.660;5.616;2022-08-25T10:48:41;101271.34;;;37.82;23.33
59103;BME280;43999;51.660;5.616;2022-08-25T10:55:03;101270.34;;;37.88;22.28
59103;BME280;43999;51.660;5.616;2022-08-25T10:58:03;101266.66;;;37.77;22.58
59103;BME280;43999;51.660;5.616;2022-08-25T11:04:27;101266.91;;;37.76;22.15
59103;BME280;43999;51.660;5.616;2022-08-25T11:07:11;101263.06;;;37.77;22.40
59103;BME280;43999;51.660;5.616;2022-08-25T11:09:53;101263.66;;;37.79;21.86
59103;BME280;43999;51.660;5.616;2022-08-25T11:12:34;101252.06;;;37.72;22.38
59103;BME280;43999;51.660;5.616;2022-08-25T11:15:21;101254.34;;;37.80;22.71
59103;BME280;43999;51.660;5.616;2022-08-25T11:18:11;101249.81;;;37.68;22.37
59103;BME280;43999;51.660;5.616;2022-08-25T11:21:10;101247.00;;;37.41;22.31
59103;BME280;43999;51.660;5.616;2022-08-25T11:26:56;101239.47;;;36.75;23.11
59103;BME280;43999;51.660;5.616;2022-08-25T11:29:33;101232.97;;;36.48;23.53
59103;BME280;43999;51.660;5.616;2022-08-25T11:32:05;101232.66;;;36.15;24.16
59103;BME280;43999;51.660;5.616;2022-08-25T11:34:36;101229.94;;;35.75;24.43
59103;BME280;43999;51.660;5.616;2022-08-25T11:37:27;101222.22;;;35.31;24.92
59103;BME280;43999;51.660;5.616;2022-08-25T11:40:18;101222.19;;;34.95;25.41
59103;BME280;43999;51.660;5.616;2022-08-25T11:55:25;101213.44;;;34.09;26.29
59103;BME280;43999;51.660;5.616;2022-08-25T11:58:52;101210.19;;;34.00;26.16
59103;BME280;43999;51.660;5.616;2022-08-25T12:12:54;101217.41;;;33.94;25.64
59103;BME280;43999;51.660;5.616;2022-08-25T12:15:53;101213.03;;;33.93;26.11
59103;BME280;43999;51.660;5.616;2022-08-25T12:23:39;101200.03;;;33.95;25.29
59103;BME280;43999;51.660;5.616;2022-08-25T12:29:42;101204.41;;;33.97;24.94
59103;BME280;43999;51.660;5.616;2022-08-25T12:33:06;101202.50;;;33.97;25.50
59103;BME280;43999;51.660;5.616;2022-08-25T12:36:06;101204.41;;;33.97;25.29
59103;BME280;43999;51.660;5.616;2022-08-25T12:38:47;101198.75;;;33.98;25.10
59103;BME280;43999;51.660;5.616;2022-08-25T12:42:01;101191.34;;;34.05;24.79
59103;BME280;43999;51.660;5.616;2022-08-25T12:44:46;101190.03;;;34.08;24.74
59103;BME280;43999;51.660;5.616;2022-08-25T12:47:34;101197.13;;;34.09;24.42
59103;BME280;43999;51.660;5.616;2022-08-25T12:50:40;101189.44;;;34.06;25.12
59103;BME280;43999;51.660;5.616;2022-08-25T12:56:24;101177.75;;;34.05;25.66
59103;BME280;43999;51.660;5.616;2022-08-25T12:59:21;101179.84;;;34.03;25.89
59103;BME280;43999;51.660;5.616;2022-08-25T13:02:47;101171.44;;;34.05;25.46
59103;BME280;43999;51.660;5.616;2022-08-25T13:11:18;101166.63;;;34.07;24.79
59103;BME280;43999;51.660;5.616;2022-08-25T13:14:16;101164.59;;;34.02;25.33
59103;BME280;43999;51.660;5.616;2022-08-25T13:16:59;101160.56;;;34.05;25.30
59103;BME280;43999;51.660;5.616;2022-08-25T13:19:27;101156.22;;;34.04;25.34
59103;BME280;43999;51.660;5.616;2022-08-25T13:22:19;101152.81;;;34.08;25.06
59103;BME280;43999;51.660;5.616;2022-08-25T13:24:51;101149.75;;;34.17;25.03
59103;BME280;43999;51.660;5.616;2022-08-25T13:27:23;101148.19;;;34.09;24.62
59103;BME280;43999;51.660;5.616;2022-08-25T13:29:57;101147.44;;;34.02;25.07
59103;BME280;43999;51.660;5.616;2022-08-25T13:32:35;101142.47;;;33.99;24.68
59103;BME280;43999;51.660;5.616;2022-08-25T13:35:22;101136.81;;;34.00;25.29
59103;BME280;43999;51.660;5.616;2022-08-25T13:38:16;101134.47;;;34.16;25.16
59103;BME280;43999;51.660;5.616;2022-08-25T13:40:45;101136.78;;;34.42;24.65
59103;BME280;43999;51.660;5.616;2022-08-25T13:43:13;101134.50;;;34.81;24.08
59103;BME280;43999;51.660;5.616;2022-08-25T13:45:45;101137.09;;;35.00;23.81
59103;BME280;43999;51.660;5.616;2022-08-25T13:51:21;101126.78;;;35.02;24.13
59103;BME280;43999;51.660;5.616;2022-08-25T13:54:07;101122.75;;;35.05;23.75
59103;BME280;43999;51.660;5.616;2022-08-25T13:56:50;101126.53;;;35.15;24.01
59103;BME280;43999;51.660;5.616;2022-08-25T13:59:28;101120.44;;;35.25;23.20
59103;BME280;43999;51.660;5.616;2022-08-25T14:02:10;101124.63;;;35.16;23.43
59103;BME280;43999;51.660;5.616;2022-08-25T14:04:48;101124.88;;;35.03;23.67
59103;BME280;43999;51.660;5.616;2022-08-25T14:09:57;101121.06;;;35.15;23.21
59103;BME280;43999;51.660;5.616;2022-08-25T14:12:41;101114.28;;;35.70;23.23
59103;BME280;43999;51.660;5.616;2022-08-25T14:17:59;101118.91;;;36.16;22.34
59103;BME280;43999;51.660;5.616;2022-08-25T14:20:32;101112.19;;;35.89;22.62
59103;BME280;43999;51.660;5.616;2022-08-25T14:23:09;101114.41;;;35.93;22.66
59103;BME280;43999;51.660;5.616;2022-08-25T14:25:46;101111.94;;;35.91;22.60
59103;BME280;43999;51.660;5.616;2022-08-25T14:28:19;101112.03;;;35.67;22.59
59103;BME280;43999;51.660;5.616;2022-08-25T14:31:09;101108.13;;;35.34;23.47
59103;BME280;43999;51.660;5.616;2022-08-25T14:34:16;101104.13;;;35.37;23.08
59103;BME280;43999;51.660;5.616;2022-08-25T14:36:48;101105.59;;;35.85;22.67
59103;BME280;43999;51.660;5.616;2022-08-25T14:39:17;101101.41;;;36.63;21.86
59103;BME280;43999;51.660;5.616;2022-08-25T14:41:45;101098.19;;;37.27;21.54
59103;BME280;43999;51.660;5.616;2022-08-25T14:44:19;101107.31;;;37.87;20.87
59103;BME280;43999;51.660;5.616;2022-08-25T14:46:53;101092.66;;;38.36;19.50
59103;BME280;43999;51.660;5.616;2022-08-25T14:49:29;101097.25;;;38.63;20.17
59103;BME280;43999;51.660;5.616;2022-08-25T14:52:22;101100.75;;;39.06;19.15
59103;BME280;43999;51.660;5.616;2022-08-25T14:54:53;101091.06;;;39.46;19.29
59103;BME280;43999;51.660;5.616;2022-08-25T14:57:20;101094.69;;;39.83;18.76
59103;BME280;43999;51.660;5.616;2022-08-25T14:59:50;101098.00;;;40.10;18.42
59103;BME280;43999;51.660;5.616;2022-08-25T15:02:20;101098.00;;;40.21;17.98
59103;BME280;43999;51.660;5.616;2022-08-25T15:05:01;101090.03;;;40.24;17.81
59103;BME280;43999;51.660;5.616;2022-08-25T15:07:32;101090.84;;;40.20;17.99
59103;BME280;43999;51.660;5.616;2022-08-25T15:10:20;101095.53;;;40.19;17.96
59103;BME280;43999;51.660;5.616;2022-08-25T15:12:48;101092.22;;;40.27;17.95
59103;BME280;43999;51.660;5.616;2022-08-25T15:15:20;101086.72;;;40.38;17.67